This is the latest recevied weather packets stored in our database for station/object N0QV. If no packets are shown the sender has not sent any weather packets the latest 10 day(s).
| Time | Temp. | Humidity | Pressure | Rain* | Wind** | Luminosity | Snow |
|---|---|---|---|---|---|---|---|
| 1777695759 | 3.33° C | 65% | 1019.8 hPa | 0 mm | - | 0 W/m² | - |
| 1777695457 | 3.33° C | 64% | 1019.9 hPa | 0 mm | - | 0 W/m² | - |
| 1777695154 | 3.89° C | 63% | 1019.8 hPa | 0 mm | - | 0 W/m² | - |
| 1777694851 | 3.89° C | 65% | 1020 hPa | 0 mm | - | 0 W/m² | - |
| 1777694548 | 3.89° C | 63% | 1019.9 hPa | 0 mm | - | 0 W/m² | - |
| 1777694244 | 3.89° C | 61% | 1019.7 hPa | 0 mm | - | 0 W/m² | - |
| 1777693941 | 3.89° C | 61% | 1020.1 hPa | 0 mm | - | 0 W/m² | - |
| 1777693638 | 4.44° C | 60% | 1019.8 hPa | 0 mm | - | 0 W/m² | - |
| 1777693336 | 4.44° C | 62% | 1020.1 hPa | 0 mm | - | 0 W/m² | - |
| 1777693034 | 4.44° C | 62% | 1019.9 hPa | 0 mm | - | 0 W/m² | - |
| 1777692732 | 4.44° C | 61% | 1019.9 hPa | 0 mm | - | 0 W/m² | - |
| 1777692428 | 4.44° C | 63% | 1020.3 hPa | 0 mm | - | 0 W/m² | - |
| 1777692124 | 4.44° C | 60% | 1020.1 hPa | 0 mm | - | 0 W/m² | - |
| 1777691822 | 4.44° C | 60% | 1019.9 hPa | 0 mm | - | 0 W/m² | - |
| 1777691520 | 5° C | 61% | 1020 hPa | 0 mm | - | 0 W/m² | - |
| 1777691218 | 5° C | 58% | 1019.9 hPa | 0 mm | - | 0 W/m² | - |
| 1777690916 | 5° C | 57% | 1019.9 hPa | 0 mm | - | 0 W/m² | - |
| 1777690625 | 5.56° C | 57% | 1020 hPa | 0 mm | - | 0 W/m² | - |
| 1777690310 | 5.56° C | 55% | 1019.8 hPa | 0 mm | - | 0 W/m² | - |
| 1777690008 | 6.11° C | 53% | 1019.8 hPa | 0 mm | - | 0 W/m² | - |
| 1777689706 | 6.11° C | 53% | 1019.9 hPa | 0 mm | - | 0 W/m² | - |
| 1777689404 | 6.11° C | 53% | 1019.8 hPa | 0 mm | - | 0 W/m² | - |
| 1777689101 | 6.11° C | 49% | 1019.9 hPa | 0 mm | - | 0 W/m² | - |
| 1777688798 | 6.67° C | 49% | 1019.7 hPa | 0 mm | - | 0 W/m² | - |
| 1777688495 | 6.67° C | 47% | 1019.6 hPa | 0 mm | - | 0 W/m² | - |
* Rain latest hour (hover to see other rain measurements)
** Current wind speed in m/s (hover to see current wind gust speed)